createdAt,value
2019-04-20T00:01:03.364Z,99.90
2019-04-20T00:02:14.381Z,99.90
2019-04-20T00:03:19.204Z,99.90
2019-04-20T00:04:31.002Z,99.90
2019-04-20T00:05:35.107Z,99.90
2019-04-20T00:06:46.726Z,99.90
2019-04-20T00:07:52.168Z,99.90
2019-04-20T00:09:07.422Z,99.90
2019-04-20T00:10:13.506Z,99.90
2019-04-20T00:11:25.425Z,99.90
2019-04-20T00:12:37.196Z,99.90
2019-04-20T00:13:46.918Z,99.90
2019-04-20T00:14:44.327Z,99.90
2019-04-20T00:15:51.378Z,99.90
2019-04-20T00:16:58.982Z,99.90
2019-04-20T00:18:08.278Z,99.90
2019-04-20T00:19:24.317Z,99.90
2019-04-20T00:20:28.996Z,99.90
2019-04-20T00:21:47.030Z,99.90
2019-04-20T00:22:58.223Z,99.90
2019-04-20T00:24:15.752Z,99.90
2019-04-20T00:25:46.234Z,99.90
2019-04-20T00:28:25.409Z,99.90
2019-04-20T00:29:29.398Z,99.90
2019-04-20T00:30:48.046Z,99.90
2019-04-20T00:31:45.759Z,99.90
2019-04-20T00:32:56.423Z,99.90
2019-04-20T00:34:02.388Z,99.90
2019-04-20T00:34:59.934Z,99.90
2019-04-20T00:36:08.958Z,99.90
2019-04-20T00:37:17.054Z,99.90
2019-04-20T00:38:27.151Z,99.90
2019-04-20T00:39:34.002Z,99.90
2019-04-20T00:40:41.548Z,99.90
2019-04-20T00:41:55.154Z,99.90
2019-04-20T00:42:59.831Z,99.90
2019-04-20T00:44:13.050Z,99.90
2019-04-20T00:45:20.360Z,99.90
2019-04-20T00:46:29.281Z,99.90
2019-04-20T00:47:42.978Z,99.90
2019-04-20T00:48:51.853Z,99.90
2019-04-20T00:50:02.540Z,99.90
2019-04-20T00:51:21.402Z,99.90
2019-04-20T00:52:27.367Z,99.90
2019-04-20T00:53:26.195Z,99.90
2019-04-20T00:54:26.390Z,99.90
2019-04-20T00:55:34.211Z,99.90
2019-04-20T00:56:41.466Z,99.90
2019-04-20T00:57:54.664Z,99.90
2019-04-20T00:59:12.010Z,99.90
2019-04-20T01:00:26.813Z,99.90
2019-04-20T01:01:36.197Z,99.90
2019-04-20T01:02:36.145Z,99.90
2019-04-20T01:03:52.748Z,99.90
2019-04-20T01:05:04.537Z,99.90
2019-04-20T01:06:23.122Z,99.90
2019-04-20T01:07:38.620Z,99.90
2019-04-20T01:08:48.417Z,99.90
2019-04-20T01:10:11.046Z,99.90
2019-04-20T01:11:27.028Z,99.90
2019-04-20T01:12:30.336Z,99.90
2019-04-20T01:13:42.095Z,99.90
2019-04-20T01:14:53.516Z,99.90
2019-04-20T01:16:03.285Z,99.90
2019-04-20T01:17:11.643Z,99.90
2019-04-20T01:18:13.975Z,99.90
2019-04-20T01:19:21.529Z,99.90
2019-04-20T01:20:28.702Z,99.90
2019-04-20T01:21:36.848Z,99.90
2019-04-20T01:22:53.576Z,99.90
2019-04-20T01:23:58.620Z,99.90
2019-04-20T01:25:09.783Z,99.90
2019-04-20T01:26:15.887Z,99.90
2019-04-20T01:27:32.540Z,99.90
2019-04-20T01:28:46.458Z,99.90
2019-04-20T01:29:45.702Z,99.90
2019-04-20T01:31:00.164Z,99.90
2019-04-20T01:32:07.970Z,99.90
2019-04-20T01:33:16.251Z,99.90
2019-04-20T01:34:26.592Z,99.90
2019-04-20T01:35:39.532Z,99.90
2019-04-20T01:36:45.830Z,99.90
2019-04-20T01:37:58.624Z,99.90
2019-04-20T01:38:58.935Z,99.90
2019-04-20T01:39:58.604Z,99.90
2019-04-20T01:41:03.663Z,99.90
2019-04-20T01:42:11.261Z,99.90
2019-04-20T01:43:18.633Z,99.90
2019-04-20T01:44:35.388Z,99.90
2019-04-20T01:45:40.419Z,99.90
2019-04-20T01:46:50.480Z,99.90
2019-04-20T01:47:57.401Z,99.90
2019-04-20T01:49:09.401Z,99.90
2019-04-20T01:50:16.668Z,99.90
2019-04-20T01:51:28.172Z,99.90
2019-04-20T01:52:43.446Z,99.90
2019-04-20T01:54:02.170Z,99.90
2019-04-20T01:55:24.464Z,99.90
2019-04-20T01:56:27.897Z,99.90
2019-04-20T01:57:54.584Z,99.90
2019-04-20T01:59:21.413Z,99.90
2019-04-20T02:00:31.569Z,99.90
2019-04-20T02:01:59.230Z,99.90
2019-04-20T02:03:22.804Z,99.90
2019-04-20T02:04:36.968Z,99.90
2019-04-20T02:05:41.847Z,99.90
2019-04-20T02:06:54.016Z,99.90
2019-04-20T02:07:59.068Z,99.90
2019-04-20T02:09:14.942Z,99.90
2019-04-20T02:10:21.790Z,99.90
2019-04-20T02:11:32.778Z,99.90
2019-04-20T02:12:39.196Z,99.90
2019-04-20T02:13:49.868Z,99.90
2019-04-20T02:14:57.530Z,99.90
2019-04-20T02:16:11.478Z,99.90
2019-04-20T02:17:21.388Z,99.90
2019-04-20T02:18:33.722Z,99.90
2019-04-20T02:19:41.577Z,99.90
2019-04-20T02:20:54.521Z,99.90
2019-04-20T02:22:01.501Z,99.90
2019-04-20T02:23:07.325Z,99.90
2019-04-20T02:24:05.924Z,99.90
2019-04-20T02:25:12.167Z,99.90
2019-04-20T02:26:19.968Z,99.90
2019-04-20T02:27:36.800Z,99.90
2019-04-20T02:29:00.714Z,99.90
2019-04-20T02:30:07.861Z,99.90
2019-04-20T02:31:32.945Z,99.90
2019-04-20T02:32:47.171Z,99.90
2019-04-20T02:33:47.493Z,99.90
2019-04-20T02:35:26.344Z,99.90
2019-04-20T02:38:15.325Z,99.90
2019-04-20T02:39:37.888Z,99.90
2019-04-20T02:40:52.165Z,99.90
2019-04-20T02:41:44.513Z,99.90
2019-04-20T02:42:51.592Z,99.90
2019-04-20T02:46:14.815Z,99.90
2019-04-20T02:47:32.128Z,99.90
2019-04-20T02:48:29.759Z,99.90
2019-04-20T02:49:40.401Z,99.90
2019-04-20T02:50:52.961Z,99.90
2019-04-20T02:53:17.366Z,99.90
2019-04-20T02:54:19.040Z,99.90
2019-04-20T02:55:22.855Z,99.90
2019-04-20T02:56:43.520Z,99.90
2019-04-20T02:57:49.330Z,99.90
2019-04-20T02:58:50.305Z,99.90
2019-04-20T03:00:08.685Z,99.90
2019-04-20T03:00:58.354Z,99.90
2019-04-20T03:02:06.491Z,99.90
2019-04-20T03:03:09.189Z,99.90
2019-04-20T03:04:06.902Z,99.90
2019-04-20T03:05:26.320Z,99.90
2019-04-20T03:06:32.949Z,99.90
2019-04-20T03:07:50.351Z,99.90
2019-04-20T03:09:05.811Z,99.90
2019-04-20T03:10:06.518Z,99.90
2019-04-20T03:11:23.417Z,99.90
2019-04-20T03:12:30.355Z,99.90
2019-04-20T03:13:32.206Z,99.90
2019-04-20T03:14:39.686Z,99.90
2019-04-20T03:15:48.542Z,99.90
2019-04-20T03:17:04.364Z,99.90
2019-04-20T03:18:08.799Z,99.90
2019-04-20T03:19:14.791Z,99.90
2019-04-20T03:20:27.093Z,99.90
2019-04-20T03:21:39.321Z,99.90
2019-04-20T03:23:05.175Z,99.90
2019-04-20T03:23:59.664Z,99.90
2019-04-20T03:25:05.781Z,99.90
2019-04-20T03:26:21.177Z,99.90
2019-04-20T03:28:00.928Z,99.90
2019-04-20T03:29:13.961Z,99.90
2019-04-20T03:31:22.782Z,99.90
2019-04-20T03:34:51.472Z,99.90
2019-04-20T03:35:37.144Z,99.90
2019-04-20T03:36:47.240Z,99.90
2019-04-20T03:37:48.500Z,99.90
2019-04-20T03:38:57.458Z,99.90
2019-04-20T03:39:56.794Z,99.90
2019-04-20T03:41:05.903Z,99.90
2019-04-20T03:42:05.155Z,99.90
2019-04-20T03:43:11.896Z,99.90
2019-04-20T03:44:23.700Z,99.90
2019-04-20T03:45:35.022Z,99.90
2019-04-20T03:46:44.896Z,99.90
2019-04-20T03:47:57.053Z,99.90
2019-04-20T03:49:11.854Z,99.90
2019-04-20T03:50:24.329Z,99.90
2019-04-20T03:51:35.853Z,99.90
2019-04-20T03:52:49.743Z,99.90
2019-04-20T03:54:13.759Z,99.90
2019-04-20T03:55:37.018Z,99.90
2019-04-20T03:57:13.722Z,99.90
2019-04-20T03:58:21.575Z,99.90
2019-04-20T03:59:33.794Z,99.90
2019-04-20T04:01:08.261Z,99.90
2019-04-20T04:03:00.388Z,99.90
2019-04-20T04:04:04.221Z,99.90
2019-04-20T04:05:08.514Z,99.90
2019-04-20T04:06:21.490Z,99.90
2019-04-20T04:07:24.868Z,99.90
2019-04-20T04:08:32.933Z,99.90
2019-04-20T04:09:46.722Z,99.90
2019-04-20T04:11:03.243Z,99.90
2019-04-20T04:12:04.038Z,99.90
2019-04-20T04:13:18.725Z,99.90
2019-04-20T04:14:26.092Z,99.90
2019-04-20T04:15:36.148Z,99.90
2019-04-20T04:16:47.771Z,99.90
2019-04-20T04:17:51.436Z,99.90
2019-04-20T04:19:08.933Z,99.90
2019-04-20T04:20:14.315Z,99.90
2019-04-20T04:21:28.944Z,99.90
2019-04-20T04:22:46.245Z,99.90
2019-04-20T04:23:48.976Z,99.90
2019-04-20T04:24:57.126Z,99.90
2019-04-20T04:27:16.226Z,99.90
2019-04-20T04:28:27.288Z,99.90
2019-04-20T04:29:35.647Z,99.90
2019-04-20T04:30:39.974Z,99.90
2019-04-20T04:32:02.301Z,99.90
2019-04-20T04:33:32.920Z,99.90
2019-04-20T04:34:10.751Z,99.90
2019-04-20T04:35:15.839Z,99.90
2019-04-20T04:36:29.289Z,99.90
2019-04-20T04:37:38.571Z,99.90
2019-04-20T04:38:47.491Z,99.90
2019-04-20T04:40:01.053Z,99.90
2019-04-20T04:42:16.710Z,99.90
2019-04-20T04:43:19.796Z,99.90
2019-04-20T04:44:24.265Z,99.90
2019-04-20T04:45:23.665Z,99.90
2019-04-20T04:46:29.253Z,99.90
2019-04-20T04:47:36.747Z,99.90
2019-04-20T04:48:46.445Z,99.90
2019-04-20T04:49:59.963Z,99.90
2019-04-20T04:51:08.440Z,99.90
2019-04-20T04:52:13.464Z,99.90
2019-04-20T04:53:29.843Z,99.90
2019-04-20T04:54:37.682Z,99.90
2019-04-20T04:55:46.729Z,99.90
2019-04-20T04:56:44.264Z,99.90
2019-04-20T04:57:51.597Z,99.90
2019-04-20T04:59:00.269Z,99.90
2019-04-20T05:00:11.137Z,99.90
2019-04-20T05:01:22.387Z,99.90
2019-04-20T05:02:32.483Z,99.90
2019-04-20T05:04:06.428Z,99.90
2019-04-20T05:05:24.791Z,99.90
2019-04-20T05:06:31.793Z,99.90
2019-04-20T05:07:46.439Z,99.90
2019-04-20T05:08:44.024Z,99.90
2019-04-20T05:09:46.553Z,99.90
2019-04-20T05:10:54.164Z,99.90
2019-04-20T05:12:07.147Z,99.90
2019-04-20T05:13:09.677Z,99.90
2019-04-20T05:14:22.420Z,99.90
2019-04-20T05:15:37.388Z,99.90
2019-04-20T05:16:51.317Z,99.90
2019-04-20T05:18:01.985Z,99.90
2019-04-20T05:19:13.552Z,99.90
2019-04-20T05:20:17.881Z,99.90
2019-04-20T05:22:01.276Z,99.90
2019-04-20T05:23:03.973Z,99.90
2019-04-20T05:24:43.227Z,99.90
2019-04-20T05:26:14.556Z,99.90
2019-04-20T05:27:44.000Z,99.90
2019-04-20T05:28:39.255Z,99.90
2019-04-20T05:29:36.632Z,99.90
2019-04-20T05:30:48.588Z,99.90
2019-04-20T05:31:59.963Z,99.90
2019-04-20T05:33:07.816Z,99.90
2019-04-20T05:34:31.008Z,99.90
2019-04-20T05:35:37.869Z,99.90
2019-04-20T05:36:44.863Z,99.90
2019-04-20T05:38:06.922Z,99.90
2019-04-20T05:39:13.135Z,99.90
2019-04-20T05:40:16.253Z,99.90
2019-04-20T05:41:21.327Z,99.90
2019-04-20T05:42:41.185Z,99.90
2019-04-20T05:43:47.078Z,99.90
2019-04-20T05:44:57.127Z,99.90
2019-04-20T05:46:04.248Z,99.90
2019-04-20T05:47:16.935Z,99.90
2019-04-20T05:48:22.166Z,99.90
2019-04-20T05:49:34.497Z,99.90
2019-04-20T05:50:43.497Z,99.90
2019-04-20T05:51:49.838Z,99.90
2019-04-20T05:53:04.513Z,99.90
2019-04-20T05:54:12.225Z,99.90
2019-04-20T05:55:16.324Z,99.90
2019-04-20T05:56:33.091Z,99.90
2019-04-20T05:57:35.070Z,99.90
2019-04-20T05:58:46.390Z,99.90
2019-04-20T05:59:59.438Z,99.90
2019-04-20T06:01:05.572Z,99.90
2019-04-20T06:02:11.147Z,99.90
2019-04-20T06:03:18.789Z,99.90
2019-04-20T06:04:31.449Z,99.90
2019-04-20T06:05:50.812Z,99.90
2019-04-20T06:06:52.059Z,99.90
2019-04-20T06:07:56.296Z,99.90
2019-04-20T06:09:12.981Z,99.90
2019-04-20T06:10:11.424Z,99.90
2019-04-20T06:11:24.636Z,99.90
2019-04-20T06:12:31.852Z,99.90
2019-04-20T06:13:40.690Z,99.90
2019-04-20T06:15:15.528Z,99.90
2019-04-20T06:16:40.829Z,99.90
2019-04-20T06:17:59.750Z,99.90
2019-04-20T06:19:24.348Z,99.90
2019-04-20T06:20:19.748Z,99.90
2019-04-20T06:21:53.246Z,99.90
2019-04-20T06:22:53.052Z,99.90
2019-04-20T06:25:39.301Z,99.90
2019-04-20T06:26:43.525Z,99.90
2019-04-20T06:27:49.933Z,99.90
2019-04-20T06:28:46.388Z,99.90
2019-04-20T06:29:55.774Z,99.90
2019-04-20T06:31:11.114Z,99.90
2019-04-20T06:32:21.095Z,99.90
2019-04-20T06:35:51.617Z,99.90
2019-04-20T06:36:47.212Z,99.90
2019-04-20T06:37:55.116Z,99.90
2019-04-20T06:39:02.555Z,99.90
2019-04-20T06:40:24.668Z,99.90
2019-04-20T06:41:29.749Z,99.90
2019-04-20T06:42:43.979Z,99.90
2019-04-20T06:43:41.728Z,99.90
2019-04-20T06:44:39.308Z,99.90
2019-04-20T06:46:02.010Z,99.90
2019-04-20T06:48:14.667Z,99.90
2019-04-20T06:49:25.899Z,99.90
2019-04-20T06:50:22.596Z,99.90
2019-04-20T06:51:34.645Z,99.90
2019-04-20T06:53:01.500Z,99.90
2019-04-20T06:54:12.357Z,99.90
2019-04-20T06:55:38.165Z,99.90
2019-04-20T06:56:42.008Z,99.90
2019-04-20T06:57:52.865Z,99.90
2019-04-20T06:59:08.205Z,99.90
2019-04-20T07:00:12.776Z,99.90
2019-04-20T07:01:23.467Z,99.90
2019-04-20T07:02:29.745Z,99.90
2019-04-20T07:03:51.558Z,99.90
2019-04-20T07:04:55.425Z,99.90
2019-04-20T07:05:50.508Z,99.90
2019-04-20T07:07:05.315Z,99.90
2019-04-20T07:08:30.132Z,99.90
2019-04-20T07:09:22.003Z,99.90
2019-04-20T07:10:34.345Z,99.90
2019-04-20T07:11:35.847Z,99.90
2019-04-20T07:12:43.643Z,99.90
2019-04-20T07:13:45.606Z,99.90
2019-04-20T07:14:52.485Z,99.90
2019-04-20T07:16:21.434Z,99.90
2019-04-20T07:17:54.995Z,99.90
2019-04-20T07:19:04.882Z,99.90
2019-04-20T07:20:12.876Z,99.90
2019-04-20T07:21:52.312Z,99.90
2019-04-20T07:23:03.575Z,99.90
2019-04-20T07:24:14.141Z,99.90
2019-04-20T07:25:13.857Z,99.90
2019-04-20T07:26:37.493Z,99.90
2019-04-20T07:27:33.633Z,99.90
2019-04-20T07:28:51.221Z,99.90
2019-04-20T07:29:54.945Z,99.90
2019-04-20T07:30:58.005Z,99.90
2019-04-20T07:32:01.818Z,99.90
2019-04-20T07:33:15.638Z,99.90
2019-04-20T07:34:23.079Z,99.90
2019-04-20T07:35:30.561Z,99.90
2019-04-20T07:36:45.788Z,99.90
2019-04-20T07:39:00.670Z,99.90
2019-04-20T07:40:11.716Z,99.90
2019-04-20T07:41:26.175Z,99.90
2019-04-20T07:42:29.327Z,99.90
2019-04-20T07:43:29.993Z,99.90
2019-04-20T07:44:49.893Z,99.90
2019-04-20T07:45:49.027Z,99.90
2019-04-20T07:47:09.049Z,99.90
2019-04-20T07:48:11.348Z,99.90
2019-04-20T07:49:18.204Z,99.90
2019-04-20T07:50:22.870Z,99.90
2019-04-20T07:51:23.142Z,99.90
2019-04-20T07:52:33.818Z,99.90
2019-04-20T07:53:45.040Z,99.90
2019-04-20T07:55:19.124Z,99.90
2019-04-20T07:56:13.162Z,99.90
2019-04-20T07:57:15.816Z,99.90
2019-04-20T07:58:18.415Z,99.90
2019-04-20T07:59:27.602Z,99.90
2019-04-20T08:00:59.755Z,99.90
2019-04-20T08:02:37.726Z,99.90
2019-04-20T08:03:44.412Z,99.90
2019-04-20T08:05:06.244Z,99.90
2019-04-20T08:06:17.484Z,99.90
2019-04-20T08:07:20.627Z,99.90
2019-04-20T08:08:43.991Z,99.90
2019-04-20T08:09:46.572Z,99.90
2019-04-20T08:11:09.764Z,99.90
2019-04-20T08:12:25.600Z,99.90
2019-04-20T08:14:40.030Z,99.90
2019-04-20T08:15:52.482Z,99.90
2019-04-20T08:17:14.411Z,99.90
2019-04-20T08:19:13.263Z,99.90
2019-04-20T08:20:19.982Z,99.90
2019-04-20T08:21:38.696Z,99.90
2019-04-20T08:22:46.626Z,99.90
2019-04-20T08:23:50.684Z,99.90
2019-04-20T08:24:52.380Z,99.90
2019-04-20T08:25:57.157Z,99.90
2019-04-20T08:27:05.687Z,99.90
2019-04-20T08:28:21.451Z,99.90
2019-04-20T08:29:44.231Z,99.90
2019-04-20T08:31:00.897Z,99.90
2019-04-20T08:32:23.123Z,99.90
2019-04-20T08:33:35.009Z,99.90
2019-04-20T08:34:54.344Z,99.90
2019-04-20T08:36:02.851Z,99.90
2019-04-20T08:37:01.049Z,99.90
2019-04-20T08:38:37.270Z,99.90
2019-04-20T08:39:42.405Z,99.90
2019-04-20T08:40:36.064Z,99.90
2019-04-20T08:41:37.261Z,99.90
2019-04-20T08:43:00.562Z,99.90
2019-04-20T08:43:58.948Z,99.90
2019-04-20T08:45:07.150Z,99.90
2019-04-20T08:46:17.746Z,99.90
2019-04-20T08:47:35.098Z,99.90
2019-04-20T08:48:32.909Z,99.90
2019-04-20T08:49:52.226Z,99.90
2019-04-20T08:50:50.641Z,99.90
2019-04-20T08:52:13.047Z,99.90
2019-04-20T08:53:24.785Z,99.90
2019-04-20T08:54:16.568Z,99.90
2019-04-20T08:55:23.878Z,99.90
2019-04-20T08:56:31.163Z,99.90
2019-04-20T08:57:24.835Z,99.90
2019-04-20T08:58:32.041Z,99.90
2019-04-20T08:59:40.249Z,99.90
2019-04-20T09:00:53.676Z,99.90
2019-04-20T09:01:58.117Z,99.90
2019-04-20T09:03:15.330Z,99.90
2019-04-20T09:04:24.224Z,99.90
2019-04-20T09:05:34.801Z,99.90
2019-04-20T09:06:49.184Z,99.90
2019-04-20T09:07:57.526Z,99.90
2019-04-20T09:09:11.610Z,99.90
2019-04-20T09:10:28.253Z,99.90
2019-04-20T09:11:40.061Z,99.90
2019-04-20T09:12:35.513Z,99.90
2019-04-20T09:13:36.327Z,99.90
2019-04-20T09:14:39.656Z,99.90
2019-04-20T09:15:47.029Z,99.90
2019-04-20T09:17:23.091Z,99.90
2019-04-20T09:18:34.333Z,99.90
2019-04-20T09:19:46.962Z,99.90
2019-04-20T09:20:52.916Z,99.90
2019-04-20T09:22:24.390Z,99.90
2019-04-20T09:23:36.668Z,99.90
2019-04-20T09:24:52.827Z,99.90
2019-04-20T09:26:00.082Z,99.90
2019-04-20T09:27:04.706Z,99.90
2019-04-20T09:28:34.561Z,99.90
2019-04-20T09:29:40.419Z,99.20
2019-04-20T09:30:53.929Z,98.90
2019-04-20T09:32:16.778Z,99.10
2019-04-20T09:33:44.036Z,98.50
2019-04-20T09:34:54.574Z,98.50
2019-04-20T09:35:57.669Z,97.90
2019-04-20T09:37:24.695Z,97.80
2019-04-20T09:38:36.856Z,98.00
2019-04-20T09:40:02.394Z,98.70
2019-04-20T09:41:10.101Z,97.20
2019-04-20T09:42:20.031Z,97.40
2019-04-20T09:43:38.913Z,97.80
2019-04-20T09:44:51.116Z,97.90
2019-04-20T09:46:00.225Z,97.50
2019-04-20T09:47:06.485Z,97.50
2019-04-20T09:48:19.312Z,97.20
2019-04-20T09:49:37.810Z,97.00
2019-04-20T09:50:47.530Z,96.80
2019-04-20T09:51:55.089Z,97.20
2019-04-20T09:53:04.072Z,96.50
2019-04-20T09:54:10.723Z,95.80
2019-04-20T09:55:18.366Z,96.00
2019-04-20T09:56:30.366Z,95.90
2019-04-20T09:57:39.073Z,96.60
2019-04-20T09:58:50.928Z,96.40
2019-04-20T09:59:57.272Z,96.30
2019-04-20T10:01:04.403Z,95.60
2019-04-20T10:02:06.803Z,95.80
2019-04-20T10:03:06.703Z,95.90
2019-04-20T10:04:15.233Z,96.30
2019-04-20T10:05:23.289Z,95.80
2019-04-20T10:06:33.947Z,94.90
2019-04-20T10:07:40.518Z,95.20
2019-04-20T10:08:51.503Z,94.40
2019-04-20T10:09:57.771Z,94.00
2019-04-20T10:11:05.667Z,95.00
2019-04-20T10:12:13.534Z,93.80
2019-04-20T10:13:21.576Z,93.70
2019-04-20T10:14:30.897Z,93.40
2019-04-20T10:15:37.853Z,93.00
2019-04-20T10:16:44.639Z,92.60
2019-04-20T10:17:51.957Z,91.50
2019-04-20T10:18:59.224Z,90.90
2019-04-20T10:20:10.866Z,90.50
2019-04-20T10:21:16.450Z,90.80
2019-04-20T10:22:24.592Z,90.80
2019-04-20T10:23:32.503Z,90.60
2019-04-20T10:24:39.484Z,90.10
2019-04-20T10:25:46.833Z,90.20
2019-04-20T10:26:54.581Z,90.00
2019-04-20T10:28:03.302Z,89.70
2019-04-20T10:29:10.452Z,88.70
2019-04-20T10:30:18.638Z,87.70
2019-04-20T10:31:26.476Z,88.90
2019-04-20T10:32:39.372Z,89.50
2019-04-20T10:33:42.021Z,89.30
2019-04-20T10:34:48.773Z,88.80
2019-04-20T10:35:55.571Z,87.10
2019-04-20T10:37:16.076Z,88.60
2019-04-20T10:38:27.581Z,88.00
2019-04-20T10:39:38.476Z,86.30
2019-04-20T10:40:55.890Z,86.90
2019-04-20T10:41:58.484Z,86.80
2019-04-20T10:43:04.449Z,86.50
2019-04-20T10:44:12.336Z,86.30
2019-04-20T10:45:19.259Z,87.50
2019-04-20T10:46:26.949Z,86.60
2019-04-20T10:47:34.956Z,85.50
2019-04-20T10:48:48.034Z,84.90
2019-04-20T10:49:51.137Z,84.70
2019-04-20T10:50:58.992Z,85.50
2019-04-20T10:52:07.475Z,85.30
2019-04-20T10:53:14.459Z,85.80
2019-04-20T10:54:22.448Z,84.80
2019-04-20T10:55:29.592Z,83.40
2019-04-20T10:56:37.328Z,83.50
2019-04-20T10:57:44.264Z,84.00
2019-04-20T10:58:51.674Z,84.30
2019-04-20T10:59:59.618Z,83.70
2019-04-20T11:01:07.375Z,82.50
2019-04-20T11:02:15.762Z,81.80
2019-04-20T11:03:22.829Z,82.70
2019-04-20T11:04:30.565Z,82.40
2019-04-20T11:05:38.292Z,82.50
2019-04-20T11:06:46.845Z,83.50
2019-04-20T11:07:54.694Z,82.20
2019-04-20T11:09:02.551Z,82.60
2019-04-20T11:10:15.714Z,81.80
2019-04-20T11:11:26.178Z,82.30
2019-04-20T11:12:28.436Z,82.40
2019-04-20T11:13:35.355Z,82.10
2019-04-20T11:14:44.291Z,81.10
2019-04-20T11:15:50.994Z,80.60
2019-04-20T11:16:58.401Z,80.40
2019-04-20T11:18:06.861Z,80.80
2019-04-20T11:19:15.555Z,81.40
2019-04-20T11:20:23.468Z,81.70
2019-04-20T11:21:30.582Z,80.70
2019-04-20T11:22:38.045Z,81.50
2019-04-20T11:23:45.043Z,80.70
2019-04-20T11:24:52.395Z,81.30
2019-04-20T11:26:00.149Z,80.90
2019-04-20T11:27:07.871Z,81.70
2019-04-20T11:28:16.476Z,80.20
2019-04-20T11:29:24.182Z,80.40
2019-04-20T11:30:32.184Z,79.10
2019-04-20T11:31:44.317Z,79.40
2019-04-20T11:32:48.427Z,79.10
2019-04-20T11:33:58.299Z,78.80
2019-04-20T11:35:09.102Z,79.80
2019-04-20T11:36:14.965Z,80.30
2019-04-20T11:37:21.830Z,80.30
2019-04-20T11:38:30.233Z,79.20
2019-04-20T11:39:37.090Z,79.60
2019-04-20T11:40:44.880Z,79.40
2019-04-20T11:41:51.803Z,78.70
2019-04-20T11:42:59.682Z,78.50
2019-04-20T11:44:29.375Z,78.70
2019-04-20T11:45:34.096Z,77.40
2019-04-20T11:46:41.172Z,77.10
2019-04-20T11:47:47.937Z,77.80
2019-04-20T11:48:55.298Z,78.00
2019-04-20T11:50:02.116Z,78.30
2019-04-20T11:51:09.489Z,78.70
2019-04-20T11:52:21.130Z,78.30
2019-04-20T11:53:26.853Z,77.70
2019-04-20T11:54:34.891Z,77.30
2019-04-20T11:55:42.341Z,76.60
2019-04-20T11:56:49.342Z,76.90
2019-04-20T11:57:56.270Z,77.50
2019-04-20T11:59:03.642Z,77.50
2019-04-20T12:00:15.075Z,76.20
2019-04-20T12:01:58.879Z,77.50
2019-04-20T12:03:32.897Z,77.70
2019-04-20T12:05:04.053Z,77.20
2019-04-20T12:06:03.518Z,77.40
2019-04-20T12:07:08.851Z,77.10
2019-04-20T12:08:16.659Z,76.90
2019-04-20T12:09:24.630Z,76.00
2019-04-20T12:10:33.184Z,76.50
2019-04-20T12:11:53.467Z,76.20
2019-04-20T12:12:52.184Z,76.40
2019-04-20T12:13:58.570Z,76.20
2019-04-20T12:15:06.466Z,76.00
2019-04-20T12:16:13.896Z,75.60
2019-04-20T12:17:21.784Z,76.50
2019-04-20T12:18:29.514Z,76.80
2019-04-20T12:19:37.862Z,76.60
2019-04-20T12:20:45.009Z,75.70
2019-04-20T12:21:51.905Z,76.10
2019-04-20T12:23:00.118Z,76.10
2019-04-20T12:24:07.410Z,76.20
2019-04-20T12:25:15.864Z,77.00
2019-04-20T12:26:24.808Z,76.00
2019-04-20T12:27:32.513Z,76.60
2019-04-20T12:28:40.134Z,76.50
2019-04-20T12:29:47.881Z,77.70
2019-04-20T12:30:55.998Z,76.70
2019-04-20T12:32:05.262Z,75.40
2019-04-20T12:33:13.475Z,76.10
2019-04-20T12:34:20.486Z,75.60
2019-04-20T12:35:27.692Z,75.60
2019-04-20T12:36:35.293Z,74.30
2019-04-20T12:37:43.118Z,73.60
2019-04-20T12:38:50.969Z,74.40
2019-04-20T12:39:58.510Z,74.80
2019-04-20T12:41:07.496Z,76.70
2019-04-20T12:42:14.834Z,74.30
2019-04-20T12:43:21.756Z,74.90
2019-04-20T12:44:29.998Z,76.00
2019-04-20T12:45:37.795Z,74.70
2019-04-20T12:46:45.850Z,73.70
2019-04-20T12:47:53.743Z,73.80
2019-04-20T12:49:01.764Z,74.20
2019-04-20T12:50:11.825Z,74.00
2019-04-20T12:51:19.676Z,74.20
2019-04-20T12:52:27.974Z,74.50
2019-04-20T12:53:35.383Z,75.00
2019-04-20T12:54:44.522Z,74.30
2019-04-20T12:55:50.846Z,74.60
2019-04-20T12:56:58.587Z,73.00
2019-04-20T12:58:05.720Z,73.20
2019-04-20T12:59:13.802Z,73.10
2019-04-20T13:00:23.623Z,73.40
2019-04-20T13:01:30.537Z,74.30
2019-04-20T13:02:37.674Z,75.00
2019-04-20T13:03:59.762Z,73.20
2019-04-20T13:05:01.682Z,74.90
2019-04-20T13:06:10.471Z,74.40
2019-04-20T13:07:17.711Z,73.70
2019-04-20T13:08:31.827Z,73.80
2019-04-20T13:09:41.723Z,74.70
2019-04-20T13:11:05.021Z,74.20
2019-04-20T13:12:30.410Z,73.30
2019-04-20T13:13:54.805Z,72.00
2019-04-20T13:15:38.299Z,73.10
2019-04-20T13:16:48.329Z,73.10
2019-04-20T13:17:54.291Z,72.60
2019-04-20T13:19:03.833Z,72.70
2019-04-20T13:20:11.932Z,72.00
2019-04-20T13:21:19.106Z,72.40
2019-04-20T13:22:26.193Z,72.60
2019-04-20T13:23:33.310Z,72.90
2019-04-20T13:24:40.993Z,72.70
2019-04-20T13:25:48.760Z,72.70
2019-04-20T13:26:56.215Z,73.10
2019-04-20T13:28:03.501Z,72.60
2019-04-20T13:29:10.972Z,72.80
2019-04-20T13:30:19.345Z,71.80
2019-04-20T13:31:26.950Z,72.80
2019-04-20T13:32:34.445Z,72.10
2019-04-20T13:33:41.387Z,72.00
2019-04-20T13:34:48.268Z,72.60
2019-04-20T13:35:56.634Z,71.70
2019-04-20T13:37:04.280Z,72.20
2019-04-20T13:38:12.042Z,73.40
2019-04-20T13:39:19.860Z,73.70
2019-04-20T13:40:27.956Z,74.00
2019-04-20T13:41:35.787Z,72.40
2019-04-20T13:42:43.671Z,72.90
2019-04-20T13:43:50.574Z,72.40
2019-04-20T13:44:58.967Z,72.50
2019-04-20T13:46:07.139Z,72.00
2019-04-20T13:47:14.883Z,73.00
2019-04-20T13:48:22.131Z,73.00
2019-04-20T13:49:29.183Z,73.90
2019-04-20T13:50:36.198Z,72.90
2019-04-20T13:51:44.501Z,73.30
2019-04-20T13:52:52.737Z,71.90
2019-04-20T13:54:01.745Z,72.20
2019-04-20T13:55:10.593Z,72.60
2019-04-20T13:56:20.022Z,73.60
2019-04-20T13:57:37.930Z,73.10
2019-04-20T13:59:16.158Z,72.60
2019-04-20T14:00:40.913Z,71.80
2019-04-20T14:02:25.150Z,72.70
2019-04-20T14:03:32.484Z,71.70
2019-04-20T14:04:48.794Z,71.40
2019-04-20T14:05:56.441Z,71.60
2019-04-20T14:07:04.168Z,71.50
2019-04-20T14:08:13.474Z,71.60
2019-04-20T14:09:21.322Z,72.00
2019-04-20T14:10:29.258Z,71.30
2019-04-20T14:11:36.853Z,72.20
2019-04-20T14:12:53.411Z,70.90
2019-04-20T14:13:57.581Z,71.70
2019-04-20T14:15:01.498Z,71.20
2019-04-20T14:16:09.544Z,71.70
2019-04-20T14:17:17.032Z,72.50
2019-04-20T14:18:27.007Z,70.50
2019-04-20T14:19:34.797Z,70.90
2019-04-20T14:20:42.421Z,70.80
2019-04-20T14:21:50.202Z,71.00
2019-04-20T14:22:57.376Z,70.00
2019-04-20T14:24:04.402Z,71.00
2019-04-20T14:25:11.475Z,70.00
2019-04-20T14:26:18.894Z,69.80
2019-04-20T14:27:26.680Z,70.60
2019-04-20T14:28:33.462Z,69.70
2019-04-20T14:29:41.189Z,69.40
2019-04-20T14:30:48.139Z,69.30
2019-04-20T14:31:55.685Z,69.90
2019-04-20T14:33:03.443Z,70.10
2019-04-20T14:34:12.911Z,70.50
2019-04-20T14:35:18.958Z,69.90
2019-04-20T14:36:26.533Z,70.50
2019-04-20T14:37:33.407Z,70.30
2019-04-20T14:38:40.267Z,69.50
2019-04-20T14:39:48.040Z,69.50
2019-04-20T14:40:59.842Z,70.10
2019-04-20T14:42:08.329Z,69.00
2019-04-20T14:43:15.152Z,68.40
2019-04-20T14:44:21.965Z,68.30
2019-04-20T14:45:29.586Z,69.30
2019-04-20T14:46:37.755Z,69.60
2019-04-20T14:47:45.859Z,69.70
2019-04-20T14:48:52.855Z,69.80
2019-04-20T14:50:02.885Z,68.70
2019-04-20T14:51:11.811Z,68.00
2019-04-20T14:52:19.624Z,68.10
2019-04-20T14:53:27.496Z,68.60
2019-04-20T14:54:35.630Z,69.20
2019-04-20T14:55:43.500Z,69.40
2019-04-20T14:56:51.671Z,69.90
2019-04-20T14:58:03.615Z,68.10
2019-04-20T14:59:19.734Z,68.10
2019-04-20T15:01:00.471Z,68.30
2019-04-20T15:02:17.183Z,68.20
2019-04-20T15:03:30.389Z,67.50
2019-04-20T15:04:38.952Z,67.70
2019-04-20T15:05:48.803Z,67.60
2019-04-20T15:06:56.865Z,68.10
2019-04-20T15:08:04.800Z,67.90
2019-04-20T15:09:12.916Z,69.10
2019-04-20T15:10:20.609Z,67.60
2019-04-20T15:11:27.795Z,68.00
2019-04-20T15:12:41.974Z,68.30
2019-04-20T15:13:46.992Z,68.40
2019-04-20T15:14:56.598Z,69.10
2019-04-20T15:16:04.661Z,69.80
2019-04-20T15:17:15.454Z,69.60
2019-04-20T15:18:23.783Z,69.60
2019-04-20T15:19:45.469Z,69.20
2019-04-20T15:20:55.534Z,68.90
2019-04-20T15:22:05.326Z,68.90
2019-04-20T15:23:23.765Z,69.70
2019-04-20T15:24:31.546Z,68.90